TimeCDT,TemperatureF,Dew PointF,Humidity,Sea Level PressureIn,VisibilityMPH,Wind Direction,Wind SpeedMPH,Gust SpeedMPH,PrecipitationIn,Events,Conditions,WindDirDegrees,DateUTC
12:15 AM,26.6,24.8,93,30.03,10.0,Calm,Calm,-,N/A,,Clear,0,2013-10-06 05:15:00
12:35 AM,28.4,26.6,93,30.03,10.0,SW,4.6,-,N/A,,Clear,230,2013-10-06 05:35:00
12:55 AM,26.6,24.8,93,30.03,10.0,SW,5.8,-,N/A,,Clear,230,2013-10-06 05:55:00
1:15 AM,26.6,26.6,100,30.03,10.0,SW,4.6,-,N/A,,Clear,220,2013-10-06 06:15:00
1:35 AM,26.6,26.6,100,30.02,10.0,WSW,3.5,-,N/A,,Clear,240,2013-10-06 06:35:00
1:55 AM,26.6,26.6,100,30.03,10.0,Calm,Calm,-,N/A,,Clear,0,2013-10-06 06:55:00
2:15 AM,26.6,24.8,93,30.03,10.0,Calm,Calm,-,N/A,,Clear,0,2013-10-06 07:15:00
2:35 AM,26.6,26.6,100,30.03,10.0,Calm,Calm,-,N/A,,Clear,0,2013-10-06 07:35:00
2:55 AM,26.6,24.8,93,30.03,10.0,SSW,3.5,-,N/A,,Clear,210,2013-10-06 07:55:00
3:15 AM,26.6,26.6,100,30.02,10.0,Calm,Calm,-,N/A,,Clear,0,2013-10-06 08:15:00
3:35 AM,26.6,24.8,93,30.02,10.0,WSW,3.5,-,N/A,,Clear,250,2013-10-06 08:35:00
3:55 AM,28.4,26.6,93,30.02,10.0,West,4.6,-,N/A,,Clear,260,2013-10-06 08:55:00
4:15 AM,28.4,28.4,100,30.01,10.0,West,5.8,-,N/A,,Clear,260,2013-10-06 09:15:00
4:35 AM,28.4,28.4,100,30.01,10.0,West,5.8,-,N/A,,Clear,270,2013-10-06 09:35:00
4:55 AM,32.0,30.2,93,30.00,10.0,West,5.8,-,N/A,,Clear,260,2013-10-06 09:55:00
5:15 AM,32.0,32.0,100,30.00,10.0,West,4.6,-,N/A,,Clear,280,2013-10-06 10:15:00
5:35 AM,32.0,32.0,100,30.00,10.0,Calm,Calm,-,N/A,,Clear,0,2013-10-06 10:35:00
5:55 AM,32.0,32.0,100,30.00,10.0,WSW,3.5,-,N/A,,Clear,240,2013-10-06 10:55:00
6:15 AM,28.4,28.4,100,30.00,10.0,West,5.8,-,N/A,,Clear,270,2013-10-06 11:15:00
6:35 AM,32.0,32.0,100,30.00,10.0,West,5.8,-,N/A,,Clear,270,2013-10-06 11:35:00
6:55 AM,32.0,30.2,93,30.00,10.0,West,8.1,-,N/A,,Clear,270,2013-10-06 11:55:00
7:15 AM,32.0,30.2,93,30.00,10.0,West,3.5,-,N/A,,Clear,280,2013-10-06 12:15:00
7:35 AM,32.0,28.4,87,30.00,10.0,Calm,Calm,-,N/A,,Clear,0,2013-10-06 12:35:00
7:55 AM,32.0,28.4,87,30.00,10.0,SW,3.5,-,N/A,,Clear,230,2013-10-06 12:55:00
8:15 AM,32.0,28.4,87,30.00,10.0,SW,4.6,-,N/A,,Clear,220,2013-10-06 13:15:00
8:35 AM,32.0,30.2,93,30.01,10.0,WSW,6.9,-,N/A,,Clear,250,2013-10-06 13:35:00
8:55 AM,32.0,32.0,100,30.01,10.0,WSW,5.8,-,N/A,,Clear,240,2013-10-06 13:55:00
9:15 AM,35.6,33.8,93,30.01,10.0,WSW,3.5,-,N/A,,Clear,250,2013-10-06 14:15:00
9:35 AM,39.2,35.6,87,30.01,10.0,WSW,8.1,-,N/A,,Clear,250,2013-10-06 14:35:00
9:55 AM,41.0,35.6,81,30.02,10.0,West,9.2,-,N/A,,Clear,260,2013-10-06 14:55:00
10:15 AM,44.6,33.8,66,30.01,10.0,West,9.2,-,N/A,,Clear,270,2013-10-06 15:15:00
10:35 AM,46.4,33.8,62,30.01,10.0,West,8.1,-,N/A,,Clear,260,2013-10-06 15:35:00
10:55 AM,50.0,33.8,54,30.01,10.0,West,11.5,-,N/A,,Clear,260,2013-10-06 15:55:00
11:15 AM,53.6,33.8,47,30.00,10.0,WSW,6.9,-,N/A,,Clear,250,2013-10-06 16:15:00
11:35 AM,57.2,32.0,38,30.00,10.0,West,12.7,-,N/A,,Clear,260,2013-10-06 16:35:00
11:55 AM,59.0,32.0,36,29.99,10.0,West,10.4,-,N/A,,Clear,260,2013-10-06 16:55:00
12:15 PM,59.0,32.0,36,29.99,10.0,West,12.7,-,N/A,,Clear,260,2013-10-06 17:15:00
12:35 PM,59.0,30.2,34,29.99,10.0,West,17.3,-,N/A,,Clear,260,2013-10-06 17:35:00
12:55 PM,60.8,32.0,34,29.98,10.0,West,13.8,19.6,N/A,,Clear,260,2013-10-06 17:55:00
1:15 PM,60.8,32.0,34,29.98,10.0,West,11.5,18.4,N/A,,Clear,270,2013-10-06 18:15:00
1:35 PM,62.6,35.6,37,29.98,10.0,WSW,12.7,-,N/A,,Clear,250,2013-10-06 18:35:00
1:55 PM,62.6,35.6,37,29.97,10.0,WSW,13.8,17.3,N/A,,Clear,250,2013-10-06 18:55:00
2:15 PM,64.4,35.6,34,29.95,10.0,West,12.7,18.4,N/A,,Clear,270,2013-10-06 19:15:00
2:35 PM,64.4,35.6,34,29.94,10.0,West,13.8,23.0,N/A,,Clear,270,2013-10-06 19:35:00
2:55 PM,66.2,37.4,35,29.93,10.0,West,18.4,24.2,N/A,,Clear,270,2013-10-06 19:55:00
3:15 PM,66.2,35.6,32,29.93,10.0,West,17.3,26.5,N/A,,Clear,270,2013-10-06 20:15:00
3:35 PM,66.2,35.6,32,29.93,10.0,WNW,13.8,23.0,N/A,,Clear,290,2013-10-06 20:35:00
3:55 PM,66.2,35.6,32,29.93,10.0,West,19.6,-,N/A,,Clear,270,2013-10-06 20:55:00
4:15 PM,68.0,35.6,30,29.93,10.0,West,18.4,25.3,N/A,,Clear,270,2013-10-06 21:15:00
4:35 PM,68.0,37.4,33,29.92,10.0,West,13.8,23.0,N/A,,Clear,280,2013-10-06 21:35:00
4:55 PM,68.0,35.6,30,29.92,10.0,West,15.0,21.9,N/A,,Clear,270,2013-10-06 21:55:00
5:15 PM,68.0,37.4,33,29.92,10.0,WNW,13.8,20.7,N/A,,Clear,300,2013-10-06 22:15:00
5:35 PM,66.2,37.4,35,29.92,10.0,NW,16.1,24.2,N/A,,Clear,320,2013-10-06 22:35:00
5:55 PM,66.2,37.4,35,29.92,10.0,NW,11.5,20.7,N/A,,Clear,320,2013-10-06 22:55:00
6:15 PM,64.4,37.4,37,29.92,10.0,NW,13.8,-,N/A,,Clear,320,2013-10-06 23:15:00
6:35 PM,64.4,39.2,40,29.92,10.0,NW,8.1,-,N/A,,Clear,320,2013-10-06 23:35:00
6:55 PM,62.6,39.2,42,29.93,10.0,NNW,9.2,-,N/A,,Clear,330,2013-10-06 23:55:00
7:15 PM,57.2,39.2,51,29.93,10.0,NNW,8.1,-,N/A,,Clear,330,2013-10-07 00:15:00
7:35 PM,57.2,39.2,51,29.94,10.0,North,11.5,-,N/A,,Clear,350,2013-10-07 00:35:00
7:55 PM,55.4,39.2,54,29.94,10.0,North,10.4,-,N/A,,Clear,350,2013-10-07 00:55:00
8:15 PM,53.6,39.2,58,29.94,10.0,North,-9999.0,-,N/A,,Clear,0,2013-10-07 01:15:00
8:35 PM,53.6,37.4,54,29.94,10.0,North,10.4,-,N/A,,Clear,350,2013-10-07 01:35:00
8:55 PM,51.8,37.4,58,29.95,10.0,North,10.4,-,N/A,,Clear,350,2013-10-07 01:55:00
9:15 PM,50.0,37.4,62,29.95,10.0,North,8.1,-,N/A,,Clear,350,2013-10-07 02:15:00
9:35 PM,46.4,37.4,71,29.95,10.0,North,5.8,-,N/A,,Clear,350,2013-10-07 02:35:00
9:55 PM,46.4,37.4,71,29.95,10.0,NNW,4.6,-,N/A,,Clear,340,2013-10-07 02:55:00
10:15 PM,46.4,37.4,71,29.96,10.0,NNW,4.6,-,N/A,,Clear,340,2013-10-07 03:15:00
10:35 PM,44.6,37.4,76,29.96,10.0,NNW,4.6,-,N/A,,Clear,330,2013-10-07 03:35:00
10:55 PM,46.4,37.4,71,29.96,10.0,NNW,4.6,-,N/A,,Partly Cloudy,330,2013-10-07 03:55:00
11:15 PM,46.4,37.4,71,29.96,10.0,NNW,4.6,-,N/A,,Mostly Cloudy,330,2013-10-07 04:15:00
11:35 PM,46.4,37.4,71,29.96,10.0,NNW,4.6,-,N/A,,Partly Cloudy,340,2013-10-07 04:35:00
11:55 PM,46.4,37.4,71,29.95,10.0,North,5.8,-,N/A,,Clear,350,2013-10-07 04:55:00